Impacts TAF Board
For situational awareness. Not to be used for flight planning purposes.
IDs:

KBBD - Brady/Curtis Fld, TX, US

Issued at 1720 UTC 17 Nov 2019
Updated at 1955 UTC 17 Nov 2019
Potential Impact None Slight Moderate High
Time<<18/08Z 18/09Z 18/10Z 18/11Z 18/12Z 18/13Z 18/14Z 18/15Z 18/16Z 18/17Z 18/18Z 18/19Z 18/20Z>>
Type PRVL PRVL PRVL PRVL PRVL PRVL PRVL PRVL PRVL PRVL
VIS >6 >6 >6 >6 >6 >6 >6 >6 >6 >6
CIG -- -- -- -- -- -- -- -- -- --
Cover SKC SKC SKC SKC SKC SKC SKC SKC SKC SKC
FltCat VFR VFR VFR VFR VFR VFR VFR VFR VFR VFR
WX -- -- -- -- -- -- -- -- -- --
WDir VRB VRB VRB VRB VRB VRB VRB VRB VRB VRB
WSpd 5 5 5 5 5 5 5 5 5 5
WGst -- -- -- -- -- -- -- -- -- --
Raw TAF
KBBD 171720Z 1718/1818 34005KT P6SM SKC
  FM172000 35012G22KT P6SM FEW250
  FM180300 VRB05KT P6SM SKC


METAR Board
Radar Display
Forecast Discussion
For situational awareness. Not to be used for flight planning purposes.